sensor_id;sensor_type;location;lat;lon;timestamp;temperature;humidity
53645;DHT22;39547;45.554;12.068;2023-02-28T00:02:22;4.50;65.60
53645;DHT22;39547;45.554;12.068;2023-02-28T00:08:23;4.50;66.60
53645;DHT22;39547;45.554;12.068;2023-02-28T00:14:25;4.50;65.60
53645;DHT22;39547;45.554;12.068;2023-02-28T00:20:26;4.50;66.00
53645;DHT22;39547;45.554;12.068;2023-02-28T00:26:28;4.50;67.30
53645;DHT22;39547;45.554;12.068;2023-02-28T00:32:29;4.40;66.00
53645;DHT22;39547;45.554;12.068;2023-02-28T00:38:31;4.30;67.50
53645;DHT22;39547;45.554;12.068;2023-02-28T00:44:32;4.20;67.40
53645;DHT22;39547;45.554;12.068;2023-02-28T00:50:34;4.20;66.90
53645;DHT22;39547;45.554;12.068;2023-02-28T00:56:35;4.10;67.70
53645;DHT22;39547;45.554;12.068;2023-02-28T01:02:39;4.00;67.30
53645;DHT22;39547;45.554;12.068;2023-02-28T01:08:40;4.00;67.10
53645;DHT22;39547;45.554;12.068;2023-02-28T01:14:42;3.90;67.40
53645;DHT22;39547;45.554;12.068;2023-02-28T01:20:43;4.00;67.70
53645;DHT22;39547;45.554;12.068;2023-02-28T01:26:45;4.10;66.40
53645;DHT22;39547;45.554;12.068;2023-02-28T01:32:46;4.10;66.20
53645;DHT22;39547;45.554;12.068;2023-02-28T01:38:49;4.10;67.20
53645;DHT22;39547;45.554;12.068;2023-02-28T01:44:57;4.10;68.20
53645;DHT22;39547;45.554;12.068;2023-02-28T01:51:05;4.20;68.50
53645;DHT22;39547;45.554;12.068;2023-02-28T01:57:15;4.10;68.00
53645;DHT22;39547;45.554;12.068;2023-02-28T02:03:19;4.20;68.10
53645;DHT22;39547;45.554;12.068;2023-02-28T02:09:21;4.20;67.80
53645;DHT22;39547;45.554;12.068;2023-02-28T02:46:21;4.20;64.90
53645;DHT22;39547;45.554;12.068;2023-02-28T02:52:32;4.20;65.20
53645;DHT22;39547;45.554;12.068;2023-02-28T02:58:38;4.30;66.00
53645;DHT22;39547;45.554;12.068;2023-02-28T03:04:58;4.40;66.70
53645;DHT22;39547;45.554;12.068;2023-02-28T03:11:05;4.30;65.90
53645;DHT22;39547;45.554;12.068;2023-02-28T03:24:08;4.30;66.10
53645;DHT22;39547;45.554;12.068;2023-02-28T03:37:04;4.30;67.60
53645;DHT22;39547;45.554;12.068;2023-02-28T03:43:12;4.40;67.00
53645;DHT22;39547;45.554;12.068;2023-02-28T03:49:22;4.40;67.90
53645;DHT22;39547;45.554;12.068;2023-02-28T03:55:24;4.40;67.80
53645;DHT22;39547;45.554;12.068;2023-02-28T04:01:38;4.40;67.30
53645;DHT22;39547;45.554;12.068;2023-02-28T04:07:40;4.40;68.40
53645;DHT22;39547;45.554;12.068;2023-02-28T04:13:41;4.40;68.40
53645;DHT22;39547;45.554;12.068;2023-02-28T04:19:42;4.40;68.90
53645;DHT22;39547;45.554;12.068;2023-02-28T04:25:44;4.40;69.30
53645;DHT22;39547;45.554;12.068;2023-02-28T04:31:45;4.40;68.30
53645;DHT22;39547;45.554;12.068;2023-02-28T04:37:47;4.30;67.80
53645;DHT22;39547;45.554;12.068;2023-02-28T04:43:48;4.30;67.70
53645;DHT22;39547;45.554;12.068;2023-02-28T04:49:50;4.20;69.00
53645;DHT22;39547;45.554;12.068;2023-02-28T04:55:51;4.20;69.60
53645;DHT22;39547;45.554;12.068;2023-02-28T05:01:53;4.20;69.60
53645;DHT22;39547;45.554;12.068;2023-02-28T05:07:54;4.20;67.00
53645;DHT22;39547;45.554;12.068;2023-02-28T05:13:56;4.20;70.10
53645;DHT22;39547;45.554;12.068;2023-02-28T05:19:58;4.20;68.40
53645;DHT22;39547;45.554;12.068;2023-02-28T05:25:59;4.20;69.50
53645;DHT22;39547;45.554;12.068;2023-02-28T05:32:01;4.10;68.20
53645;DHT22;39547;45.554;12.068;2023-02-28T05:38:02;4.10;70.60
53645;DHT22;39547;45.554;12.068;2023-02-28T05:44:03;4.10;70.10
53645;DHT22;39547;45.554;12.068;2023-02-28T05:50:05;4.00;69.80
53645;DHT22;39547;45.554;12.068;2023-02-28T05:56:07;4.00;68.70
53645;DHT22;39547;45.554;12.068;2023-02-28T06:02:13;4.00;71.00
53645;DHT22;39547;45.554;12.068;2023-02-28T06:08:15;4.10;70.20
53645;DHT22;39547;45.554;12.068;2023-02-28T06:14:19;4.10;71.20
53645;DHT22;39547;45.554;12.068;2023-02-28T06:20:20;4.10;71.50
53645;DHT22;39547;45.554;12.068;2023-02-28T06:26:22;4.20;71.80
53645;DHT22;39547;45.554;12.068;2023-02-28T06:32:23;4.20;71.60
53645;DHT22;39547;45.554;12.068;2023-02-28T06:38:25;4.20;70.50
53645;DHT22;39547;45.554;12.068;2023-02-28T06:44:26;4.20;72.00
53645;DHT22;39547;45.554;12.068;2023-02-28T06:50:28;4.40;72.20
53645;DHT22;39547;45.554;12.068;2023-02-28T06:56:30;4.60;71.90
53645;DHT22;39547;45.554;12.068;2023-02-28T07:02:32;4.70;71.40
53645;DHT22;39547;45.554;12.068;2023-02-28T07:15:26;5.10;69.50
53645;DHT22;39547;45.554;12.068;2023-02-28T07:21:27;5.20;68.30
53645;DHT22;39547;45.554;12.068;2023-02-28T07:27:29;5.30;68.90
53645;DHT22;39547;45.554;12.068;2023-02-28T07:33:30;5.40;67.60
53645;DHT22;39547;45.554;12.068;2023-02-28T07:39:32;5.60;66.50
53645;DHT22;39547;45.554;12.068;2023-02-28T07:45:33;5.70;67.00
53645;DHT22;39547;45.554;12.068;2023-02-28T07:51:35;5.90;66.40
53645;DHT22;39547;45.554;12.068;2023-02-28T07:57:37;6.10;66.20
53645;DHT22;39547;45.554;12.068;2023-02-28T08:03:39;6.20;64.50
53645;DHT22;39547;45.554;12.068;2023-02-28T08:09:41;6.30;64.00
53645;DHT22;39547;45.554;12.068;2023-02-28T08:15:43;6.50;64.10
53645;DHT22;39547;45.554;12.068;2023-02-28T08:21:46;6.70;61.50
53645;DHT22;39547;45.554;12.068;2023-02-28T08:27:47;6.70;61.30
53645;DHT22;39547;45.554;12.068;2023-02-28T08:33:51;6.90;62.40
53645;DHT22;39547;45.554;12.068;2023-02-28T08:39:54;7.10;61.90
53645;DHT22;39547;45.554;12.068;2023-02-28T08:45:56;7.30;61.50
53645;DHT22;39547;45.554;12.068;2023-02-28T08:52:00;7.40;59.10
53645;DHT22;39547;45.554;12.068;2023-02-28T08:58:02;7.50;59.00
53645;DHT22;39547;45.554;12.068;2023-02-28T09:04:03;7.60;58.70
53645;DHT22;39547;45.554;12.068;2023-02-28T09:10:05;7.70;57.70
53645;DHT22;39547;45.554;12.068;2023-02-28T09:16:09;7.80;57.80
53645;DHT22;39547;45.554;12.068;2023-02-28T09:22:12;8.00;57.60
53645;DHT22;39547;45.554;12.068;2023-02-28T09:28:15;8.20;58.20
53645;DHT22;39547;45.554;12.068;2023-02-28T09:34:17;8.20;56.90
53645;DHT22;39547;45.554;12.068;2023-02-28T09:40:21;8.30;55.70
53645;DHT22;39547;45.554;12.068;2023-02-28T09:46:42;8.50;55.50
53645;DHT22;39547;45.554;12.068;2023-02-28T09:52:49;8.70;55.30
53645;DHT22;39547;45.554;12.068;2023-02-28T10:05:35;8.90;54.00
53645;DHT22;39547;45.554;12.068;2023-02-28T10:11:38;9.20;54.70
53645;DHT22;39547;45.554;12.068;2023-02-28T10:17:44;9.20;54.00
53645;DHT22;39547;45.554;12.068;2023-02-28T10:23:48;9.40;53.30
53645;DHT22;39547;45.554;12.068;2023-02-28T10:29:52;9.50;53.40
53645;DHT22;39547;45.554;12.068;2023-02-28T10:35:54;9.70;53.50
53645;DHT22;39547;45.554;12.068;2023-02-28T10:41:56;9.90;52.60
53645;DHT22;39547;45.554;12.068;2023-02-28T10:48:05;10.00;52.80
53645;DHT22;39547;45.554;12.068;2023-02-28T10:54:33;9.80;51.80
53645;DHT22;39547;45.554;12.068;2023-02-28T11:00:36;9.70;53.20
53645;DHT22;39547;45.554;12.068;2023-02-28T11:06:37;9.70;53.20
53645;DHT22;39547;45.554;12.068;2023-02-28T11:12:41;9.70;53.20
53645;DHT22;39547;45.554;12.068;2023-02-28T11:18:53;9.70;53.10
53645;DHT22;39547;45.554;12.068;2023-02-28T11:24:58;10.00;53.60
53645;DHT22;39547;45.554;12.068;2023-02-28T11:37:18;10.70;50.50
53645;DHT22;39547;45.554;12.068;2023-02-28T11:43:35;10.60;50.50
53645;DHT22;39547;45.554;12.068;2023-02-28T12:02:48;10.70;51.40
53645;DHT22;39547;45.554;12.068;2023-02-28T12:28:01;11.20;50.20
53645;DHT22;39547;45.554;12.068;2023-02-28T12:34:07;11.30;49.00
53645;DHT22;39547;45.554;12.068;2023-02-28T12:40:18;11.30;48.30
53645;DHT22;39547;45.554;12.068;2023-02-28T12:46:45;11.30;49.10
53645;DHT22;39547;45.554;12.068;2023-02-28T12:53:25;11.80;48.70
53645;DHT22;39547;45.554;12.068;2023-02-28T12:59:32;12.10;47.70
53645;DHT22;39547;45.554;12.068;2023-02-28T13:06:03;12.30;47.90
53645;DHT22;39547;45.554;12.068;2023-02-28T13:12:14;12.40;47.50
53645;DHT22;39547;45.554;12.068;2023-02-28T13:18:37;12.30;46.60
53645;DHT22;39547;45.554;12.068;2023-02-28T13:24:44;12.40;48.10
53645;DHT22;39547;45.554;12.068;2023-02-28T13:50:32;12.60;46.20
53645;DHT22;39547;45.554;12.068;2023-02-28T13:56:47;12.60;47.90
53645;DHT22;39547;45.554;12.068;2023-02-28T14:09:38;12.50;45.90
53645;DHT22;39547;45.554;12.068;2023-02-28T14:15:49;12.40;46.50
53645;DHT22;39547;45.554;12.068;2023-02-28T14:22:12;12.50;46.70
53645;DHT22;39547;45.554;12.068;2023-02-28T14:40:52;12.00;47.80
53645;DHT22;39547;45.554;12.068;2023-02-28T14:46:57;11.80;49.80
53645;DHT22;39547;45.554;12.068;2023-02-28T14:52:59;11.70;50.80
53645;DHT22;39547;45.554;12.068;2023-02-28T14:59:01;11.60;52.00
53645;DHT22;39547;45.554;12.068;2023-02-28T15:11:21;11.40;52.60
53645;DHT22;39547;45.554;12.068;2023-02-28T15:17:24;11.70;52.70
53645;DHT22;39547;45.554;12.068;2023-02-28T15:23:26;12.20;50.60
53645;DHT22;39547;45.554;12.068;2023-02-28T15:29:29;12.40;48.80
53645;DHT22;39547;45.554;12.068;2023-02-28T15:35:32;12.60;48.50
53645;DHT22;39547;45.554;12.068;2023-02-28T15:41:38;12.80;48.30
53645;DHT22;39547;45.554;12.068;2023-02-28T15:47:39;12.70;49.70
53645;DHT22;39547;45.554;12.068;2023-02-28T15:53:48;12.40;50.10
53645;DHT22;39547;45.554;12.068;2023-02-28T16:00:00;12.70;49.60
53645;DHT22;39547;45.554;12.068;2023-02-28T16:12:32;11.70;51.80
53645;DHT22;39547;45.554;12.068;2023-02-28T16:18:33;11.20;53.10
53645;DHT22;39547;45.554;12.068;2023-02-28T16:24:35;10.80;53.30
53645;DHT22;39547;45.554;12.068;2023-02-28T16:30:36;10.40;54.20
53645;DHT22;39547;45.554;12.068;2023-02-28T16:36:38;10.00;55.70
53645;DHT22;39547;45.554;12.068;2023-02-28T16:42:40;9.70;57.30
53645;DHT22;39547;45.554;12.068;2023-02-28T16:48:42;9.50;58.30
53645;DHT22;39547;45.554;12.068;2023-02-28T16:54:44;9.20;58.70
53645;DHT22;39547;45.554;12.068;2023-02-28T17:00:45;9.00;59.70
53645;DHT22;39547;45.554;12.068;2023-02-28T17:06:47;8.80;60.40
53645;DHT22;39547;45.554;12.068;2023-02-28T17:12:49;8.70;61.50
53645;DHT22;39547;45.554;12.068;2023-02-28T17:18:50;8.60;62.30
53645;DHT22;39547;45.554;12.068;2023-02-28T17:24:53;8.40;63.10
53645;DHT22;39547;45.554;12.068;2023-02-28T17:30:56;8.30;63.70
53645;DHT22;39547;45.554;12.068;2023-02-28T17:36:58;8.20;64.20
53645;DHT22;39547;45.554;12.068;2023-02-28T17:43:00;8.20;64.40
53645;DHT22;39547;45.554;12.068;2023-02-28T17:49:01;8.10;64.90
53645;DHT22;39547;45.554;12.068;2023-02-28T17:55:03;7.90;64.80
53645;DHT22;39547;45.554;12.068;2023-02-28T18:01:05;7.80;64.50
53645;DHT22;39547;45.554;12.068;2023-02-28T18:07:08;7.70;64.60
53645;DHT22;39547;45.554;12.068;2023-02-28T18:13:10;7.60;65.00
53645;DHT22;39547;45.554;12.068;2023-02-28T18:19:14;7.50;65.00
53645;DHT22;39547;45.554;12.068;2023-02-28T18:25:17;7.30;65.10
53645;DHT22;39547;45.554;12.068;2023-02-28T18:31:19;7.20;64.10
53645;DHT22;39547;45.554;12.068;2023-02-28T18:37:21;7.20;64.90
53645;DHT22;39547;45.554;12.068;2023-02-28T18:43:23;7.10;65.10
53645;DHT22;39547;45.554;12.068;2023-02-28T18:49:24;7.00;65.90
53645;DHT22;39547;45.554;12.068;2023-02-28T18:55:25;6.90;65.90
53645;DHT22;39547;45.554;12.068;2023-02-28T19:01:29;6.80;66.20
53645;DHT22;39547;45.554;12.068;2023-02-28T19:07:34;6.80;66.50
53645;DHT22;39547;45.554;12.068;2023-02-28T19:13:36;6.70;66.70
53645;DHT22;39547;45.554;12.068;2023-02-28T19:19:38;6.70;66.70
53645;DHT22;39547;45.554;12.068;2023-02-28T19:25:40;6.60;66.30
53645;DHT22;39547;45.554;12.068;2023-02-28T19:31:42;6.60;66.80
53645;DHT22;39547;45.554;12.068;2023-02-28T19:37:43;6.50;66.60
53645;DHT22;39547;45.554;12.068;2023-02-28T19:43:45;6.50;66.80
53645;DHT22;39547;45.554;12.068;2023-02-28T19:49:47;6.40;65.70
53645;DHT22;39547;45.554;12.068;2023-02-28T19:55:48;6.30;66.30
53645;DHT22;39547;45.554;12.068;2023-02-28T20:01:52;6.20;65.70
53645;DHT22;39547;45.554;12.068;2023-02-28T20:07:56;6.20;66.70
53645;DHT22;39547;45.554;12.068;2023-02-28T20:13:58;6.10;66.10
53645;DHT22;39547;45.554;12.068;2023-02-28T20:20:00;6.00;66.20
53645;DHT22;39547;45.554;12.068;2023-02-28T20:26:02;6.00;65.90
53645;DHT22;39547;45.554;12.068;2023-02-28T20:32:04;5.90;66.60
53645;DHT22;39547;45.554;12.068;2023-02-28T20:38:08;5.90;67.80
53645;DHT22;39547;45.554;12.068;2023-02-28T20:44:11;5.90;68.50
53645;DHT22;39547;45.554;12.068;2023-02-28T20:50:13;5.90;67.60
53645;DHT22;39547;45.554;12.068;2023-02-28T20:56:17;5.80;67.50
53645;DHT22;39547;45.554;12.068;2023-02-28T21:02:19;5.80;67.30
53645;DHT22;39547;45.554;12.068;2023-02-28T21:08:22;5.80;68.00
53645;DHT22;39547;45.554;12.068;2023-02-28T21:14:24;5.70;67.90
53645;DHT22;39547;45.554;12.068;2023-02-28T21:20:26;5.70;68.50
53645;DHT22;39547;45.554;12.068;2023-02-28T21:26:28;5.70;67.00
53645;DHT22;39547;45.554;12.068;2023-02-28T21:32:29;5.70;68.60
53645;DHT22;39547;45.554;12.068;2023-02-28T21:38:31;5.60;68.30
53645;DHT22;39547;45.554;12.068;2023-02-28T21:44:32;5.50;68.10
53645;DHT22;39547;45.554;12.068;2023-02-28T21:50:34;5.40;68.80
53645;DHT22;39547;45.554;12.068;2023-02-28T21:56:36;5.30;68.70
53645;DHT22;39547;45.554;12.068;2023-02-28T22:02:37;5.20;69.10
53645;DHT22;39547;45.554;12.068;2023-02-28T22:08:40;5.20;69.50
53645;DHT22;39547;45.554;12.068;2023-02-28T22:14:42;5.20;69.10
53645;DHT22;39547;45.554;12.068;2023-02-28T22:20:53;5.10;69.80
53645;DHT22;39547;45.554;12.068;2023-02-28T22:26:54;5.10;70.20
53645;DHT22;39547;45.554;12.068;2023-02-28T22:32:56;5.10;70.10
53645;DHT22;39547;45.554;12.068;2023-02-28T22:38:57;5.20;68.50
53645;DHT22;39547;45.554;12.068;2023-02-28T22:45:00;5.10;68.50
53645;DHT22;39547;45.554;12.068;2023-02-28T22:51:15;5.10;68.90
53645;DHT22;39547;45.554;12.068;2023-02-28T22:57:17;5.00;69.20
53645;DHT22;39547;45.554;12.068;2023-02-28T23:03:21;5.00;68.30
53645;DHT22;39547;45.554;12.068;2023-02-28T23:09:23;5.00;69.80
53645;DHT22;39547;45.554;12.068;2023-02-28T23:15:24;5.00;69.30
53645;DHT22;39547;45.554;12.068;2023-02-28T23:21:26;5.00;68.50
53645;DHT22;39547;45.554;12.068;2023-02-28T23:27:28;5.00;70.00
53645;DHT22;39547;45.554;12.068;2023-02-28T23:33:30;5.00;69.40
53645;DHT22;39547;45.554;12.068;2023-02-28T23:39:31;4.90;69.60
53645;DHT22;39547;45.554;12.068;2023-02-28T23:45:33;4.80;68.30
53645;DHT22;39547;45.554;12.068;2023-02-28T23:51:34;4.70;69.10
53645;DHT22;39547;45.554;12.068;2023-02-28T23:57:36;4.70;70.00
